sensor_id;sensor_type;location;lat;lon;timestamp;pressure;altitude;pressure_sealevel;temperature;humidity
20350;BME280;10332;50.208;18.988;2022-12-10T00:01:49;96698.03;;;3.96;94.65
20350;BME280;10332;50.208;18.988;2022-12-10T00:04:18;96700.41;;;3.99;94.39
20350;BME280;10332;50.208;18.988;2022-12-10T00:06:47;96700.03;;;4.05;94.47
20350;BME280;10332;50.208;18.988;2022-12-10T00:09:18;96702.69;;;4.04;94.15
20350;BME280;10332;50.208;18.988;2022-12-10T00:11:46;96694.53;;;3.97;93.93
20350;BME280;10332;50.208;18.988;2022-12-10T00:14:14;96703.72;;;4.01;94.22
20350;BME280;10332;50.208;18.988;2022-12-10T00:16:42;96702.28;;;4.10;94.06
20350;BME280;10332;50.208;18.988;2022-12-10T00:19:10;96701.03;;;4.03;93.77
20350;BME280;10332;50.208;18.988;2022-12-10T00:21:38;96700.91;;;4.04;93.63
20350;BME280;10332;50.208;18.988;2022-12-10T00:24:06;96701.47;;;4.09;93.73
20350;BME280;10332;50.208;18.988;2022-12-10T00:26:38;96704.09;;;3.95;93.41
20350;BME280;10332;50.208;18.988;2022-12-10T00:29:09;96691.94;;;3.97;93.71
20350;BME280;10332;50.208;18.988;2022-12-10T00:31:38;96697.94;;;3.97;93.57
20350;BME280;10332;50.208;18.988;2022-12-10T00:34:10;96690.28;;;3.96;93.50
20350;BME280;10332;50.208;18.988;2022-12-10T00:36:47;96699.34;;;3.89;93.84
20350;BME280;10332;50.208;18.988;2022-12-10T00:39:19;96694.78;;;3.92;93.95
20350;BME280;10332;50.208;18.988;2022-12-10T00:41:48;96694.53;;;3.97;93.82
20350;BME280;10332;50.208;18.988;2022-12-10T00:44:16;96699.25;;;3.90;93.71
20350;BME280;10332;50.208;18.988;2022-12-10T00:46:44;96703.19;;;3.96;93.64
20350;BME280;10332;50.208;18.988;2022-12-10T00:49:11;96698.78;;;3.84;93.52
20350;BME280;10332;50.208;18.988;2022-12-10T00:51:39;96701.56;;;3.81;93.92
20350;BME280;10332;50.208;18.988;2022-12-10T00:54:07;96703.34;;;3.80;93.89
20350;BME280;10332;50.208;18.988;2022-12-10T00:56:35;96700.94;;;3.77;94.19
20350;BME280;10332;50.208;18.988;2022-12-10T00:59:03;96698.06;;;3.82;94.06
20350;BME280;10332;50.208;18.988;2022-12-10T01:01:38;96707.00;;;3.76;94.02
20350;BME280;10332;50.208;18.988;2022-12-10T01:04:17;96708.66;;;3.77;94.02
20350;BME280;10332;50.208;18.988;2022-12-10T01:06:53;96712.47;;;3.72;94.07
20350;BME280;10332;50.208;18.988;2022-12-10T01:09:30;96714.88;;;3.75;94.37
20350;BME280;10332;50.208;18.988;2022-12-10T01:12:02;96719.09;;;3.76;94.32
20350;BME280;10332;50.208;18.988;2022-12-10T01:14:32;96718.72;;;3.82;94.38
20350;BME280;10332;50.208;18.988;2022-12-10T01:17:03;96712.72;;;3.81;94.24
20350;BME280;10332;50.208;18.988;2022-12-10T01:19:33;96718.41;;;3.86;94.18
20350;BME280;10332;50.208;18.988;2022-12-10T01:22:01;96718.91;;;3.79;94.11
20350;BME280;10332;50.208;18.988;2022-12-10T01:24:29;96710.53;;;3.75;94.30
20350;BME280;10332;50.208;18.988;2022-12-10T01:26:57;96713.50;;;3.69;94.43
20350;BME280;10332;50.208;18.988;2022-12-10T01:29:25;96725.59;;;3.68;94.56
20350;BME280;10332;50.208;18.988;2022-12-10T01:31:57;96717.34;;;3.76;94.48
20350;BME280;10332;50.208;18.988;2022-12-10T01:34:25;96727.75;;;3.75;94.40
20350;BME280;10332;50.208;18.988;2022-12-10T01:36:54;96731.41;;;3.85;94.23
20350;BME280;10332;50.208;18.988;2022-12-10T01:39:22;96741.03;;;3.83;94.32
20350;BME280;10332;50.208;18.988;2022-12-10T01:41:57;96745.97;;;3.86;94.17
20350;BME280;10332;50.208;18.988;2022-12-10T01:46:56;96739.22;;;3.97;94.02
20350;BME280;10332;50.208;18.988;2022-12-10T01:49:35;96734.06;;;3.97;93.83
20350;BME280;10332;50.208;18.988;2022-12-10T01:52:08;96736.53;;;3.99;93.59
20350;BME280;10332;50.208;18.988;2022-12-10T01:54:43;96736.41;;;3.88;93.51
20350;BME280;10332;50.208;18.988;2022-12-10T01:57:17;96731.72;;;3.80;93.52
20350;BME280;10332;50.208;18.988;2022-12-10T01:59:49;96726.84;;;3.76;94.07
20350;BME280;10332;50.208;18.988;2022-12-10T02:13:42;96739.56;;;3.79;94.05
20350;BME280;10332;50.208;18.988;2022-12-10T02:16:15;96734.59;;;3.76;94.25
20350;BME280;10332;50.208;18.988;2022-12-10T02:19:07;96740.19;;;3.82;94.32
20350;BME280;10332;50.208;18.988;2022-12-10T02:21:42;96747.66;;;3.87;94.04
20350;BME280;10332;50.208;18.988;2022-12-10T02:24:18;96757.69;;;3.91;94.07
20350;BME280;10332;50.208;18.988;2022-12-10T02:27:04;96761.09;;;3.92;93.92
20350;BME280;10332;50.208;18.988;2022-12-10T02:29:35;96772.91;;;3.96;93.97
20350;BME280;10332;50.208;18.988;2022-12-10T02:32:16;96775.63;;;4.07;93.91
20350;BME280;10332;50.208;18.988;2022-12-10T02:34:54;96760.84;;;4.09;93.59
20350;BME280;10332;50.208;18.988;2022-12-10T02:37:36;96767.56;;;4.12;93.36
20350;BME280;10332;50.208;18.988;2022-12-10T02:40:13;96765.44;;;4.18;93.32
20350;BME280;10332;50.208;18.988;2022-12-10T02:42:48;96758.94;;;4.25;93.04
20350;BME280;10332;50.208;18.988;2022-12-10T02:45:20;96750.81;;;4.32;93.06
20350;BME280;10332;50.208;18.988;2022-12-10T02:47:53;96751.00;;;4.28;92.71
20350;BME280;10332;50.208;18.988;2022-12-10T02:50:22;96742.81;;;4.22;92.26
20350;BME280;10332;50.208;18.988;2022-12-10T02:52:50;96740.16;;;4.23;92.37
20350;BME280;10332;50.208;18.988;2022-12-10T02:55:18;96743.13;;;4.17;92.18
20350;BME280;10332;50.208;18.988;2022-12-10T03:00:23;96747.66;;;4.14;92.45
20350;BME280;10332;50.208;18.988;2022-12-10T03:03:40;96751.97;;;4.13;92.24
20350;BME280;10332;50.208;18.988;2022-12-10T03:06:15;96762.84;;;4.18;92.25
20350;BME280;10332;50.208;18.988;2022-12-10T03:11:31;96754.97;;;4.07;92.39
20350;BME280;10332;50.208;18.988;2022-12-10T03:14:12;96759.06;;;3.97;92.51
20350;BME280;10332;50.208;18.988;2022-12-10T03:16:47;96756.00;;;4.05;92.47
20350;BME280;10332;50.208;18.988;2022-12-10T03:19:21;96771.28;;;4.08;92.58
20350;BME280;10332;50.208;18.988;2022-12-10T03:21:52;96770.81;;;4.15;92.38
20350;BME280;10332;50.208;18.988;2022-12-10T03:24:22;96774.81;;;4.19;92.41
20350;BME280;10332;50.208;18.988;2022-12-10T03:26:51;96782.56;;;4.19;92.49
20350;BME280;10332;50.208;18.988;2022-12-10T03:29:33;96778.13;;;4.21;92.45
20350;BME280;10332;50.208;18.988;2022-12-10T03:32:03;96775.38;;;4.24;92.27
20350;BME280;10332;50.208;18.988;2022-12-10T03:34:32;96783.63;;;4.30;92.20
20350;BME280;10332;50.208;18.988;2022-12-10T03:37:01;96770.56;;;4.33;92.15
20350;BME280;10332;50.208;18.988;2022-12-10T03:39:30;96784.56;;;4.28;91.87
20350;BME280;10332;50.208;18.988;2022-12-10T03:41:58;96782.28;;;4.24;91.79
20350;BME280;10332;50.208;18.988;2022-12-10T03:44:34;96774.56;;;4.24;91.67
20350;BME280;10332;50.208;18.988;2022-12-10T03:47:05;96782.56;;;4.19;91.53
20350;BME280;10332;50.208;18.988;2022-12-10T03:49:35;96783.94;;;4.25;91.69
20350;BME280;10332;50.208;18.988;2022-12-10T03:52:03;96799.25;;;4.28;91.76
20350;BME280;10332;50.208;18.988;2022-12-10T03:54:30;96800.06;;;4.28;91.89
20350;BME280;10332;50.208;18.988;2022-12-10T03:56:58;96794.19;;;4.26;91.87
20350;BME280;10332;50.208;18.988;2022-12-10T03:59:25;96794.72;;;4.32;91.77
20350;BME280;10332;50.208;18.988;2022-12-10T04:01:53;96804.84;;;4.35;91.79
20350;BME280;10332;50.208;18.988;2022-12-10T04:04:20;96797.81;;;4.37;91.71
20350;BME280;10332;50.208;18.988;2022-12-10T04:06:48;96802.59;;;4.43;91.63
20350;BME280;10332;50.208;18.988;2022-12-10T04:09:16;96805.91;;;4.45;91.78
20350;BME280;10332;50.208;18.988;2022-12-10T04:11:44;96804.06;;;4.47;91.44
20350;BME280;10332;50.208;18.988;2022-12-10T04:14:13;96798.78;;;4.48;91.37
20350;BME280;10332;50.208;18.988;2022-12-10T04:16:59;96809.03;;;4.50;91.18
20350;BME280;10332;50.208;18.988;2022-12-10T04:19:27;96808.13;;;4.51;90.95
20350;BME280;10332;50.208;18.988;2022-12-10T04:21:54;96811.91;;;4.45;90.90
20350;BME280;10332;50.208;18.988;2022-12-10T04:24:40;96820.34;;;4.35;90.48
20350;BME280;10332;50.208;18.988;2022-12-10T04:27:33;96821.75;;;4.26;90.84
20350;BME280;10332;50.208;18.988;2022-12-10T04:30:01;96828.47;;;4.28;90.97
20350;BME280;10332;50.208;18.988;2022-12-10T04:32:29;96838.09;;;4.26;91.11
20350;BME280;10332;50.208;18.988;2022-12-10T04:34:56;96843.47;;;4.23;91.33
20350;BME280;10332;50.208;18.988;2022-12-10T04:37:26;96842.44;;;4.26;91.10
20350;BME280;10332;50.208;18.988;2022-12-10T04:39:54;96851.56;;;4.32;91.21
20350;BME280;10332;50.208;18.988;2022-12-10T04:42:22;96845.53;;;4.31;91.21
20350;BME280;10332;50.208;18.988;2022-12-10T04:44:49;96842.13;;;4.31;91.29
20350;BME280;10332;50.208;18.988;2022-12-10T04:47:17;96846.56;;;4.28;91.30
20350;BME280;10332;50.208;18.988;2022-12-10T04:49:45;96845.84;;;4.26;91.25
20350;BME280;10332;50.208;18.988;2022-12-10T04:52:14;96848.66;;;4.36;91.25
20350;BME280;10332;50.208;18.988;2022-12-10T04:54:42;96847.34;;;4.43;91.05
20350;BME280;10332;50.208;18.988;2022-12-10T04:57:11;96852.41;;;4.45;90.92
20350;BME280;10332;50.208;18.988;2022-12-10T04:59:38;96850.78;;;4.44;90.94
20350;BME280;10332;50.208;18.988;2022-12-10T05:02:06;96865.13;;;4.48;91.03
20350;BME280;10332;50.208;18.988;2022-12-10T05:04:34;96863.47;;;4.47;90.77
20350;BME280;10332;50.208;18.988;2022-12-10T05:07:02;96860.06;;;4.46;90.87
20350;BME280;10332;50.208;18.988;2022-12-10T05:09:29;96872.16;;;4.46;90.99
20350;BME280;10332;50.208;18.988;2022-12-10T05:11:57;96875.41;;;4.49;90.67
20350;BME280;10332;50.208;18.988;2022-12-10T05:14:24;96878.88;;;4.48;90.86
20350;BME280;10332;50.208;18.988;2022-12-10T05:16:52;96878.59;;;4.53;90.76
20350;BME280;10332;50.208;18.988;2022-12-10T05:19:19;96880.16;;;4.55;90.77
20350;BME280;10332;50.208;18.988;2022-12-10T05:21:49;96880.06;;;4.57;90.75
20350;BME280;10332;50.208;18.988;2022-12-10T05:24:35;96887.63;;;4.60;90.51
20350;BME280;10332;50.208;18.988;2022-12-10T05:27:03;96884.84;;;4.63;90.25
20350;BME280;10332;50.208;18.988;2022-12-10T05:29:32;96875.06;;;4.68;90.36
20350;BME280;10332;50.208;18.988;2022-12-10T05:32:00;96874.03;;;4.71;90.20
20350;BME280;10332;50.208;18.988;2022-12-10T05:34:27;96876.72;;;4.69;90.04
20350;BME280;10332;50.208;18.988;2022-12-10T05:36:55;96862.41;;;4.64;89.92
20350;BME280;10332;50.208;18.988;2022-12-10T05:39:22;96864.66;;;4.55;89.64
20350;BME280;10332;50.208;18.988;2022-12-10T05:41:50;96855.09;;;4.43;89.37
20350;BME280;10332;50.208;18.988;2022-12-10T05:44:17;96856.78;;;4.30;89.84
20350;BME280;10332;50.208;18.988;2022-12-10T05:46:45;96855.44;;;4.24;89.82
20350;BME280;10332;50.208;18.988;2022-12-10T05:49:12;96864.59;;;4.16;90.12
20350;BME280;10332;50.208;18.988;2022-12-10T05:51:40;96858.94;;;4.23;90.25
20350;BME280;10332;50.208;18.988;2022-12-10T05:54:07;96854.78;;;4.21;90.08
20350;BME280;10332;50.208;18.988;2022-12-10T05:56:37;96852.50;;;4.16;90.24
20350;BME280;10332;50.208;18.988;2022-12-10T05:59:05;96846.31;;;4.19;90.29
20350;BME280;10332;50.208;18.988;2022-12-10T06:01:41;96848.38;;;4.14;90.56
20350;BME280;10332;50.208;18.988;2022-12-10T06:04:09;96846.69;;;4.13;90.55
20350;BME280;10332;50.208;18.988;2022-12-10T06:06:39;96845.34;;;4.07;90.39
20350;BME280;10332;50.208;18.988;2022-12-10T06:09:11;96842.50;;;3.97;90.69
20350;BME280;10332;50.208;18.988;2022-12-10T06:11:39;96842.50;;;3.97;91.06
20350;BME280;10332;50.208;18.988;2022-12-10T06:14:08;96839.81;;;3.99;91.08
20350;BME280;10332;50.208;18.988;2022-12-10T06:16:36;96851.16;;;3.96;91.18
20350;BME280;10332;50.208;18.988;2022-12-10T06:19:03;96862.84;;;4.02;91.12
20350;BME280;10332;50.208;18.988;2022-12-10T06:21:31;96868.84;;;4.03;91.04
20350;BME280;10332;50.208;18.988;2022-12-10T06:23:58;96860.94;;;4.06;91.04
20350;BME280;10332;50.208;18.988;2022-12-10T06:26:26;96869.50;;;4.06;90.81
20350;BME280;10332;50.208;18.988;2022-12-10T06:28:54;96876.59;;;4.03;90.69
20350;BME280;10332;50.208;18.988;2022-12-10T06:31:22;96884.16;;;4.06;90.88
20350;BME280;10332;50.208;18.988;2022-12-10T06:33:51;96901.94;;;4.10;90.76
20350;BME280;10332;50.208;18.988;2022-12-10T06:36:20;96903.50;;;4.13;90.69
20350;BME280;10332;50.208;18.988;2022-12-10T06:38:48;96919.66;;;4.16;90.75
20350;BME280;10332;50.208;18.988;2022-12-10T06:41:18;96922.03;;;4.19;90.57
20350;BME280;10332;50.208;18.988;2022-12-10T06:43:48;96926.28;;;4.20;90.49
20350;BME280;10332;50.208;18.988;2022-12-10T06:46:19;96926.75;;;4.27;90.39
20350;BME280;10332;50.208;18.988;2022-12-10T06:48:48;96931.44;;;4.35;90.17
20350;BME280;10332;50.208;18.988;2022-12-10T06:51:16;96930.25;;;4.26;89.77
20350;BME280;10332;50.208;18.988;2022-12-10T06:53:45;96938.53;;;4.31;90.07
20350;BME280;10332;50.208;18.988;2022-12-10T06:56:17;96939.38;;;4.32;89.70
20350;BME280;10332;50.208;18.988;2022-12-10T06:58:45;96938.34;;;4.34;90.02
20350;BME280;10332;50.208;18.988;2022-12-10T07:01:20;96950.53;;;4.32;89.65
20350;BME280;10332;50.208;18.988;2022-12-10T07:03:52;96953.50;;;4.26;89.59
20350;BME280;10332;50.208;18.988;2022-12-10T07:06:23;96948.44;;;4.24;89.52
20350;BME280;10332;50.208;18.988;2022-12-10T07:08:51;96928.84;;;4.20;89.81
20350;BME280;10332;50.208;18.988;2022-12-10T07:11:22;96926.75;;;4.13;89.79
20350;BME280;10332;50.208;18.988;2022-12-10T07:13:51;96925.19;;;4.10;89.97
20350;BME280;10332;50.208;18.988;2022-12-10T07:16:25;96926.31;;;4.06;89.84
20350;BME280;10332;50.208;18.988;2022-12-10T07:18:56;96922.81;;;4.07;90.07
20350;BME280;10332;50.208;18.988;2022-12-10T07:21:30;96928.44;;;3.99;90.21
20350;BME280;10332;50.208;18.988;2022-12-10T07:24:06;96935.97;;;4.03;90.34
20350;BME280;10332;50.208;18.988;2022-12-10T07:26:37;96939.47;;;4.02;90.54
20350;BME280;10332;50.208;18.988;2022-12-10T07:29:07;96943.47;;;4.07;90.70
20350;BME280;10332;50.208;18.988;2022-12-10T07:31:36;96951.47;;;4.17;90.91
20350;BME280;10332;50.208;18.988;2022-12-10T07:34:04;96952.56;;;4.27;91.31
20350;BME280;10332;50.208;18.988;2022-12-10T07:36:32;96964.81;;;4.38;91.02
20350;BME280;10332;50.208;18.988;2022-12-10T07:39:00;96963.91;;;4.39;90.33
20350;BME280;10332;50.208;18.988;2022-12-10T07:41:29;96965.22;;;4.32;90.06
20350;BME280;10332;50.208;18.988;2022-12-10T07:43:58;96975.34;;;4.35;90.00
20350;BME280;10332;50.208;18.988;2022-12-10T07:46:29;96972.66;;;4.36;89.97
20350;BME280;10332;50.208;18.988;2022-12-10T07:49:02;96965.00;;;4.35;89.81
20350;BME280;10332;50.208;18.988;2022-12-10T07:51:30;96961.31;;;4.39;90.01
20350;BME280;10332;50.208;18.988;2022-12-10T07:53:57;96963.91;;;4.39;90.03
20350;BME280;10332;50.208;18.988;2022-12-10T07:56:25;96960.22;;;4.28;89.26
20350;BME280;10332;50.208;18.988;2022-12-10T07:58:53;96962.44;;;4.35;89.46
20350;BME280;10332;50.208;18.988;2022-12-10T08:01:24;96963.06;;;4.38;89.30
20350;BME280;10332;50.208;18.988;2022-12-10T08:03:55;96961.78;;;4.45;89.23
20350;BME280;10332;50.208;18.988;2022-12-10T08:06:28;96960.22;;;4.43;88.63
20350;BME280;10332;50.208;18.988;2022-12-10T08:08:58;96957.44;;;4.46;88.35
20350;BME280;10332;50.208;18.988;2022-12-10T08:11:26;96945.50;;;4.57;88.42
20350;BME280;10332;50.208;18.988;2022-12-10T08:13:54;96946.31;;;4.58;88.24
20350;BME280;10332;50.208;18.988;2022-12-10T08:16:27;96952.41;;;4.57;87.92
20350;BME280;10332;50.208;18.988;2022-12-10T08:18:58;96958.56;;;4.42;88.08
20350;BME280;10332;50.208;18.988;2022-12-10T08:21:30;96954.16;;;4.56;88.01
20350;BME280;10332;50.208;18.988;2022-12-10T08:23:59;96950.22;;;4.51;88.08
20350;BME280;10332;50.208;18.988;2022-12-10T08:26:31;96955.78;;;4.45;87.96
20350;BME280;10332;50.208;18.988;2022-12-10T08:29:00;96950.41;;;4.48;88.00
20350;BME280;10332;50.208;18.988;2022-12-10T08:31:29;96947.66;;;4.51;88.20
20350;BME280;10332;50.208;18.988;2022-12-10T08:34:04;96948.47;;;4.51;88.10
20350;BME280;10332;50.208;18.988;2022-12-10T08:36:32;96952.34;;;4.59;87.77
20350;BME280;10332;50.208;18.988;2022-12-10T08:38:59;96954.41;;;4.66;87.53
20350;BME280;10332;50.208;18.988;2022-12-10T08:41:27;96957.09;;;4.65;88.01
20350;BME280;10332;50.208;18.988;2022-12-10T08:43:54;96960.16;;;4.71;87.85
20350;BME280;10332;50.208;18.988;2022-12-10T08:46:22;96962.16;;;4.80;88.55
20350;BME280;10332;50.208;18.988;2022-12-10T08:48:51;96963.44;;;4.88;88.69
20350;BME280;10332;50.208;18.988;2022-12-10T08:51:20;96968.16;;;4.81;88.06
20350;BME280;10332;50.208;18.988;2022-12-10T08:53:47;96974.34;;;4.78;88.75
20350;BME280;10332;50.208;18.988;2022-12-10T08:56:15;96979.28;;;4.69;87.69
20350;BME280;10332;50.208;18.988;2022-12-10T08:58:43;96967.81;;;4.73;87.94
20350;BME280;10332;50.208;18.988;2022-12-10T09:01:14;96969.81;;;4.82;88.33
20350;BME280;10332;50.208;18.988;2022-12-10T09:03:43;96980.59;;;4.89;87.68
20350;BME280;10332;50.208;18.988;2022-12-10T09:06:18;96975.88;;;4.95;87.20
20350;BME280;10332;50.208;18.988;2022-12-10T09:08:48;96963.28;;;5.03;87.13
20350;BME280;10332;50.208;18.988;2022-12-10T09:11:27;96963.13;;;4.92;86.54
20350;BME280;10332;50.208;18.988;2022-12-10T09:13:55;96958.88;;;4.91;86.28
20350;BME280;10332;50.208;18.988;2022-12-10T09:16:36;96963.81;;;4.81;86.18
20350;BME280;10332;50.208;18.988;2022-12-10T09:19:04;96950.16;;;4.79;86.22
20350;BME280;10332;50.208;18.988;2022-12-10T09:21:32;96959.00;;;4.75;86.40
20350;BME280;10332;50.208;18.988;2022-12-10T09:24:00;96954.72;;;4.62;87.13
20350;BME280;10332;50.208;18.988;2022-12-10T09:26:28;96955.94;;;4.56;87.32
20350;BME280;10332;50.208;18.988;2022-12-10T09:28:55;96950.59;;;4.45;87.28
20350;BME280;10332;50.208;18.988;2022-12-10T09:31:26;96952.63;;;4.40;87.98
20350;BME280;10332;50.208;18.988;2022-12-10T09:33:54;96955.22;;;4.40;88.24
20350;BME280;10332;50.208;18.988;2022-12-10T09:36:22;96950.16;;;4.38;88.17
20350;BME280;10332;50.208;18.988;2022-12-10T09:38:56;96942.97;;;4.29;88.26
20350;BME280;10332;50.208;18.988;2022-12-10T09:47:00;96941.97;;;4.32;88.89
20350;BME280;10332;50.208;18.988;2022-12-10T09:52:28;96935.69;;;4.36;89.27
20350;BME280;10332;50.208;18.988;2022-12-10T09:55:10;96930.34;;;4.24;89.22
20350;BME280;10332;50.208;18.988;2022-12-10T09:57:45;96936.97;;;4.28;89.10
20350;BME280;10332;50.208;18.988;2022-12-10T10:00:26;96938.00;;;4.26;88.66
20350;BME280;10332;50.208;18.988;2022-12-10T10:02:59;96935.69;;;4.36;88.85
20350;BME280;10332;50.208;18.988;2022-12-10T10:05:38;96937.88;;;4.42;88.63
20350;BME280;10332;50.208;18.988;2022-12-10T10:08:22;96944.25;;;4.36;89.23
20350;BME280;10332;50.208;18.988;2022-12-10T10:10:51;96947.00;;;4.47;89.58
20350;BME280;10332;50.208;18.988;2022-12-10T10:13:56;96941.44;;;4.53;89.30
20350;BME280;10332;50.208;18.988;2022-12-10T10:16:42;96945.50;;;4.57;89.72
20350;BME280;10332;50.208;18.988;2022-12-10T10:19:17;96957.50;;;4.59;90.17
20350;BME280;10332;50.208;18.988;2022-12-10T10:21:48;96953.78;;;4.63;89.62
20350;BME280;10332;50.208;18.988;2022-12-10T10:24:21;96955.09;;;4.55;88.81
20350;BME280;10332;50.208;18.988;2022-12-10T10:26:53;96946.06;;;4.48;88.75
20350;BME280;10332;50.208;18.988;2022-12-10T10:29:24;96953.16;;;4.59;89.11
20350;BME280;10332;50.208;18.988;2022-12-10T10:35:05;96940.63;;;4.39;89.10
20350;BME280;10332;50.208;18.988;2022-12-10T10:40:03;96943.13;;;4.40;89.24
20350;BME280;10332;50.208;18.988;2022-12-10T10:42:40;96947.91;;;4.46;89.27
20350;BME280;10332;50.208;18.988;2022-12-10T10:48:28;96955.94;;;4.56;89.21
20350;BME280;10332;50.208;18.988;2022-12-10T10:58:58;96925.84;;;4.82;88.31
20350;BME280;10332;50.208;18.988;2022-12-10T11:04:27;96927.47;;;4.70;87.61
20350;BME280;10332;50.208;18.988;2022-12-10T11:07:00;96936.88;;;4.71;87.78
20350;BME280;10332;50.208;18.988;2022-12-10T11:09:32;96947.44;;;4.68;87.79
20350;BME280;10332;50.208;18.988;2022-12-10T11:12:10;96953.16;;;4.59;88.13
20350;BME280;10332;50.208;18.988;2022-12-10T11:14:47;96954.00;;;4.60;88.05
20350;BME280;10332;50.208;18.988;2022-12-10T11:19:53;96945.50;;;4.57;88.45
20350;BME280;10332;50.208;18.988;2022-12-10T11:22:28;96942.53;;;4.64;88.47
20350;BME280;10332;50.208;18.988;2022-12-10T11:24:57;96940.06;;;4.48;88.77
20350;BME280;10332;50.208;18.988;2022-12-10T11:30:19;96936.75;;;4.60;88.55
20350;BME280;10332;50.208;18.988;2022-12-10T11:33:15;96938.28;;;4.63;88.62
20350;BME280;10332;50.208;18.988;2022-12-10T11:41:49;96949.41;;;4.50;88.73
20350;BME280;10332;50.208;18.988;2022-12-10T12:07:48;96929.63;;;4.22;89.79
20350;BME280;10332;50.208;18.988;2022-12-10T12:13:31;96931.44;;;4.35;89.73
20350;BME280;10332;50.208;18.988;2022-12-10T12:16:19;96924.63;;;4.34;90.03
20350;BME280;10332;50.208;18.988;2022-12-10T12:19:04;96931.34;;;4.36;89.81
20350;BME280;10332;50.208;18.988;2022-12-10T12:21:36;96935.47;;;4.39;89.93
20350;BME280;10332;50.208;18.988;2022-12-10T12:24:40;96924.22;;;4.40;89.56
20350;BME280;10332;50.208;18.988;2022-12-10T12:27:30;96926.41;;;4.46;89.28
20350;BME280;10332;50.208;18.988;2022-12-10T12:30:21;96925.59;;;4.45;88.84
20350;BME280;10332;50.208;18.988;2022-12-10T12:33:29;96929.94;;;4.31;88.87
20350;BME280;10332;50.208;18.988;2022-12-10T12:36:08;96918.25;;;4.25;88.96
20350;BME280;10332;50.208;18.988;2022-12-10T12:38:53;96918.25;;;4.25;89.28
20350;BME280;10332;50.208;18.988;2022-12-10T12:47:34;96926.63;;;4.28;89.87
20350;BME280;10332;50.208;18.988;2022-12-10T12:53:14;96929.88;;;4.18;90.13
20350;BME280;10332;50.208;18.988;2022-12-10T13:02:02;96934.13;;;4.19;89.96
20350;BME280;10332;50.208;18.988;2022-12-10T13:04:35;96932.19;;;4.22;90.03
20350;BME280;10332;50.208;18.988;2022-12-10T13:15:36;96927.38;;;4.31;90.03
20350;BME280;10332;50.208;18.988;2022-12-10T13:24:11;96950.81;;;4.27;89.90
20350;BME280;10332;50.208;18.988;2022-12-10T13:32:47;96949.41;;;4.22;90.03
20350;BME280;10332;50.208;18.988;2022-12-10T13:35:29;96951.75;;;4.26;90.15
20350;BME280;10332;50.208;18.988;2022-12-10T13:38:15;96943.69;;;4.31;90.03
20350;BME280;10332;50.208;18.988;2022-12-10T13:41:00;96948.44;;;4.24;90.07
20350;BME280;10332;50.208;18.988;2022-12-10T13:43:59;96947.13;;;4.17;90.11
20350;BME280;10332;50.208;18.988;2022-12-10T13:50:16;96964.56;;;3.99;91.19
20350;BME280;10332;50.208;18.988;2022-12-10T14:08:15;96978.88;;;4.34;90.01
20350;BME280;10332;50.208;18.988;2022-12-10T14:10:45;96976.28;;;4.34;90.16
20350;BME280;10332;50.208;18.988;2022-12-10T14:13:18;96974.34;;;4.09;89.98
20350;BME280;10332;50.208;18.988;2022-12-10T14:15:55;96976.00;;;4.10;89.73
20350;BME280;10332;50.208;18.988;2022-12-10T14:18:28;96971.03;;;4.07;89.98
20350;BME280;10332;50.208;18.988;2022-12-10T14:21:03;96967.34;;;3.96;90.53
20350;BME280;10332;50.208;18.988;2022-12-10T14:23:34;96972.03;;;4.04;90.76
20350;BME280;10332;50.208;18.988;2022-12-10T14:26:18;96964.56;;;3.99;91.21
20350;BME280;10332;50.208;18.988;2022-12-10T14:29:20;96968.19;;;3.97;91.39
20350;BME280;10332;50.208;18.988;2022-12-10T14:31:55;96969.19;;;4.09;91.30
20350;BME280;10332;50.208;18.988;2022-12-10T14:34:27;96965.41;;;4.14;91.27
20350;BME280;10332;50.208;18.988;2022-12-10T14:36:58;96964.38;;;4.17;91.26
20350;BME280;10332;50.208;18.988;2022-12-10T14:39:32;96968.53;;;4.19;91.18
20350;BME280;10332;50.208;18.988;2022-12-10T14:42:04;96971.09;;;4.19;91.03
20350;BME280;10332;50.208;18.988;2022-12-10T14:44:38;96974.00;;;4.15;90.82
20350;BME280;10332;50.208;18.988;2022-12-10T14:47:26;96986.81;;;4.16;90.89
20350;BME280;10332;50.208;18.988;2022-12-10T14:50:01;96987.44;;;4.20;90.65
20350;BME280;10332;50.208;18.988;2022-12-10T14:52:41;96991.03;;;4.17;90.50
20350;BME280;10332;50.208;18.988;2022-12-10T14:55:18;96991.13;;;4.16;90.58
20350;BME280;10332;50.208;18.988;2022-12-10T14:58:03;96988.66;;;4.14;90.28
20350;BME280;10332;50.208;18.988;2022-12-10T15:00:31;96989.47;;;4.15;90.40
20350;BME280;10332;50.208;18.988;2022-12-10T15:03:08;96991.97;;;4.16;90.59
20350;BME280;10332;50.208;18.988;2022-12-10T15:05:38;96980.44;;;4.08;91.39
20350;BME280;10332;50.208;18.988;2022-12-10T15:08:17;96981.06;;;4.11;91.65
20350;BME280;10332;50.208;18.988;2022-12-10T15:10:50;96983.66;;;4.11;91.91
20350;BME280;10332;50.208;18.988;2022-12-10T15:13:32;96982.47;;;4.17;91.73
20350;BME280;10332;50.208;18.988;2022-12-10T15:16:01;96975.66;;;4.16;92.09
20350;BME280;10332;50.208;18.988;2022-12-10T15:18:36;96977.94;;;4.20;92.17
20350;BME280;10332;50.208;18.988;2022-12-10T15:21:10;96979.69;;;4.20;91.86
20350;BME280;10332;50.208;18.988;2022-12-10T15:23:40;96980.81;;;4.16;91.77
20350;BME280;10332;50.208;18.988;2022-12-10T15:26:22;96982.19;;;4.07;91.44
20350;BME280;10332;50.208;18.988;2022-12-10T15:29:13;96979.72;;;4.06;91.99
20350;BME280;10332;50.208;18.988;2022-12-10T15:31:50;96985.84;;;4.03;92.13
20350;BME280;10332;50.208;18.988;2022-12-10T15:34:21;96976.66;;;3.99;92.19
20350;BME280;10332;50.208;18.988;2022-12-10T15:36:52;96987.72;;;4.01;91.95
20350;BME280;10332;50.208;18.988;2022-12-10T15:39:29;96975.91;;;3.97;92.22
20350;BME280;10332;50.208;18.988;2022-12-10T15:42:36;96977.00;;;3.79;92.22
20350;BME280;10332;50.208;18.988;2022-12-10T15:45:26;96971.28;;;3.74;92.40
20350;BME280;10332;50.208;18.988;2022-12-10T15:47:59;96972.19;;;3.73;93.09
20350;BME280;10332;50.208;18.988;2022-12-10T15:50:28;96972.78;;;3.78;93.20